Terminal Aerodrome Forecast
Issued by NWS Sioux Falls, SD

Home | Current Version | Previous Version | Graphics & Text | Print | Product List | Glossary On
Versions: 1 2 3 4 5 6 7 8 9 10 11 12 13 14 15 16 17 18 19 20 21 22 23 24 25 26
000
FTUS43 KFSD 221600 AAB
TAFFSD
TAF AMD
KFSD 221610Z 2216/2312 36013KT P6SM SCT023
      TEMPO 2216/2218 BKN023
     FM221800 01013G22KT P6SM SCT030
     FM230200 05004KT P6SM SCT200=

USA.gov is the U.S. government's official web portal to all federal, state and local government web resources and services.